createdAt,value
2022-11-09T00:01:06.423Z,73.27
2022-11-09T00:03:34.530Z,73.30
2022-11-09T00:06:04.016Z,73.57
2022-11-09T00:08:32.441Z,73.53
2022-11-09T00:11:05.631Z,73.49
2022-11-09T00:13:40.451Z,73.56
2022-11-09T00:16:11.219Z,73.45
2022-11-09T00:18:40.266Z,73.67
2022-11-09T00:21:12.552Z,73.63
2022-11-09T00:23:41.122Z,73.67
2022-11-09T00:26:14.121Z,73.61
2022-11-09T00:28:42.385Z,73.63
2022-11-09T00:31:14.717Z,72.83
2022-11-09T00:33:45.983Z,72.55
2022-11-09T00:36:18.128Z,71.95
2022-11-09T00:38:52.103Z,71.60
2022-11-09T00:41:21.433Z,71.47
2022-11-09T00:43:50.511Z,71.36
2022-11-09T00:46:19.119Z,71.48
2022-11-09T00:48:47.663Z,71.62
2022-11-09T00:51:17.051Z,71.81
2022-11-09T00:53:48.524Z,72.19
2022-11-09T00:56:17.904Z,72.43
2022-11-09T00:58:46.250Z,72.68
2022-11-09T01:01:18.417Z,72.80
2022-11-09T01:03:46.727Z,72.95
2022-11-09T01:06:18.362Z,73.01
2022-11-09T01:08:47.147Z,73.09
2022-11-09T01:11:18.669Z,73.08
2022-11-09T01:13:49.888Z,73.15
2022-11-09T01:16:25.075Z,73.30
2022-11-09T01:18:57.189Z,73.41
2022-11-09T01:21:28.710Z,73.60
2022-11-09T01:24:01.866Z,73.66
2022-11-09T01:26:33.812Z,73.83
2022-11-09T01:29:02.356Z,74.14
2022-11-09T01:31:32.050Z,74.69
2022-11-09T01:34:01.259Z,75.18
2022-11-09T01:36:30.917Z,75.68
2022-11-09T01:39:01.848Z,76.13
2022-11-09T01:41:30.837Z,76.55
2022-11-09T01:44:07.904Z,76.88
2022-11-09T01:46:45.625Z,77.24
2022-11-09T01:49:20.115Z,77.49
2022-11-09T01:51:56.164Z,77.38
2022-11-09T01:54:28.728Z,77.29
2022-11-09T01:57:03.974Z,77.32
2022-11-09T01:59:36.712Z,77.31
2022-11-09T02:02:05.141Z,77.30
2022-11-09T02:04:37.950Z,77.31
2022-11-09T02:07:10.341Z,77.32
2022-11-09T02:09:44.235Z,77.26
2022-11-09T02:12:14.015Z,77.18
2022-11-09T02:14:42.627Z,77.10
2022-11-09T02:17:14.743Z,77.00
2022-11-09T02:19:44.138Z,76.68
2022-11-09T02:22:14.849Z,76.48
2022-11-09T02:24:42.868Z,76.30
2022-11-09T02:27:15.504Z,76.10
2022-11-09T02:29:48.662Z,75.84
2022-11-09T02:32:20.345Z,75.68
2022-11-09T02:34:48.455Z,75.47
2022-11-09T02:37:29.633Z,75.30
2022-11-09T02:39:59.246Z,75.18
2022-11-09T02:42:27.663Z,75.20
2022-11-09T02:44:57.889Z,75.20
2022-11-09T02:47:26.282Z,75.11
2022-11-09T02:49:57.717Z,75.02
2022-11-09T02:55:28.756Z,74.87
2022-11-09T02:57:56.976Z,74.77
2022-11-09T03:00:31.845Z,74.72
2022-11-09T03:03:00.167Z,74.61
2022-11-09T03:05:29.091Z,74.47
2022-11-09T03:08:02.362Z,74.31
2022-11-09T03:10:31.132Z,74.12
2022-11-09T03:12:59.447Z,74.13
2022-11-09T03:15:30.204Z,74.02
2022-11-09T03:17:58.750Z,73.91
2022-11-09T03:20:29.341Z,74.01
2022-11-09T03:23:00.443Z,74.06
2022-11-09T03:25:29.969Z,74.11
2022-11-09T03:27:59.103Z,74.18
2022-11-09T03:30:29.240Z,74.02
2022-11-09T03:33:01.914Z,73.80
2022-11-09T03:35:29.956Z,73.63
2022-11-09T03:37:59.385Z,73.68
2022-11-09T03:40:27.497Z,73.42
2022-11-09T03:42:55.781Z,73.29
2022-11-09T03:45:24.577Z,73.21
2022-11-09T03:47:55.511Z,73.36
2022-11-09T03:50:24.157Z,73.38
2022-11-09T03:52:53.301Z,73.52
2022-11-09T03:55:30.864Z,74.56
2022-11-09T03:58:00.098Z,74.94
2022-11-09T04:00:31.658Z,75.66
2022-11-09T04:03:04.156Z,76.47
2022-11-09T04:05:32.297Z,76.63
2022-11-09T04:08:00.746Z,76.71
2022-11-09T04:10:31.515Z,76.85
2022-11-09T04:12:59.694Z,77.06
2022-11-09T04:15:27.672Z,77.32
2022-11-09T04:17:57.313Z,77.42
2022-11-09T04:20:26.059Z,77.69
2022-11-09T04:22:58.320Z,77.64
2022-11-09T04:25:27.855Z,77.65
2022-11-09T04:28:01.072Z,77.89
2022-11-09T04:30:31.431Z,77.85
2022-11-09T04:33:01.087Z,77.88
2022-11-09T04:35:30.269Z,77.96
2022-11-09T04:37:59.641Z,78.06
2022-11-09T04:40:32.053Z,78.33
2022-11-09T04:43:02.347Z,78.74
2022-11-09T04:45:30.608Z,78.82
2022-11-09T04:47:59.964Z,78.99
2022-11-09T04:50:32.201Z,78.98
2022-11-09T04:53:09.314Z,78.98
2022-11-09T04:55:37.962Z,78.89
2022-11-09T04:58:07.683Z,78.83
2022-11-09T05:00:40.110Z,78.54
2022-11-09T05:03:09.074Z,78.49
2022-11-09T05:05:44.064Z,78.46
2022-11-09T05:08:17.170Z,78.38
2022-11-09T05:10:46.203Z,78.41
2022-11-09T05:13:18.361Z,78.39
2022-11-09T05:15:46.673Z,78.47
2022-11-09T05:18:14.719Z,78.48
2022-11-09T05:20:42.731Z,78.38
2022-11-09T05:23:28.646Z,78.35
2022-11-09T05:25:56.685Z,78.34
2022-11-09T05:28:27.383Z,78.28
2022-11-09T05:30:55.810Z,78.28
2022-11-09T05:33:24.592Z,78.29
2022-11-09T05:35:55.284Z,78.19
2022-11-09T05:38:23.889Z,78.19
2022-11-09T05:40:55.150Z,78.14
2022-11-09T05:43:25.597Z,77.98
2022-11-09T05:45:56.250Z,77.96
2022-11-09T05:48:25.008Z,77.97
2022-11-09T05:50:53.178Z,77.89
2022-11-09T05:53:22.990Z,77.91
2022-11-09T05:55:51.367Z,77.89
2022-11-09T05:58:21.710Z,77.91
2022-11-09T06:00:50.219Z,77.83
2022-11-09T06:03:20.081Z,77.88
2022-11-09T06:05:48.590Z,77.89
2022-11-09T06:08:17.017Z,77.93
2022-11-09T06:10:45.757Z,77.92
2022-11-09T06:13:13.753Z,78.92
2022-11-09T06:15:41.782Z,80.98
2022-11-09T06:18:09.967Z,81.48
2022-11-09T06:20:39.319Z,79.79
2022-11-09T06:23:07.489Z,80.77
2022-11-09T06:25:35.616Z,80.98
2022-11-09T06:28:03.646Z,81.18
2022-11-09T06:30:31.899Z,80.78
2022-11-09T06:33:02.034Z,81.48
2022-11-09T06:35:30.778Z,81.82
2022-11-09T06:38:00.985Z,82.07
2022-11-09T06:40:33.739Z,82.18
2022-11-09T06:43:02.977Z,82.65
2022-11-09T06:45:32.643Z,82.17
2022-11-09T06:48:04.053Z,82.25
2022-11-09T06:50:33.735Z,82.89
2022-11-09T06:53:05.791Z,83.67
2022-11-09T06:55:36.371Z,84.65
2022-11-09T06:58:07.850Z,85.34
2022-11-09T07:00:38.546Z,86.00
2022-11-09T07:03:10.160Z,86.77
2022-11-09T07:05:39.044Z,87.22
2022-11-09T07:08:08.733Z,87.59
2022-11-09T07:10:37.016Z,87.92
2022-11-09T07:13:07.198Z,88.21
2022-11-09T07:15:37.127Z,88.54
2022-11-09T07:18:07.942Z,88.81
2022-11-09T07:20:36.328Z,89.00
2022-11-09T07:23:04.945Z,89.28
2022-11-09T07:25:37.130Z,89.45
2022-11-09T07:28:06.294Z,89.48
2022-11-09T07:30:34.749Z,89.76
2022-11-09T07:33:10.656Z,90.07
2022-11-09T07:35:41.097Z,90.26
2022-11-09T07:38:09.809Z,90.37
2022-11-09T07:40:42.767Z,90.47
2022-11-09T07:43:13.094Z,90.49
2022-11-09T07:45:42.182Z,90.52
2022-11-09T07:48:13.647Z,90.54
2022-11-09T07:50:43.963Z,90.65
2022-11-09T07:53:19.709Z,90.61
2022-11-09T07:55:58.387Z,90.59
2022-11-09T07:58:27.659Z,90.63
2022-11-09T08:00:58.430Z,90.79
2022-11-09T08:03:27.905Z,91.83
2022-11-09T08:05:59.422Z,91.88
2022-11-09T08:08:34.255Z,91.48
2022-11-09T08:11:03.823Z,91.22
2022-11-09T08:13:32.039Z,90.83
2022-11-09T08:16:03.335Z,90.38
2022-11-09T08:18:32.106Z,90.18
2022-11-09T08:21:02.740Z,89.92
2022-11-09T08:23:31.704Z,89.05
2022-11-09T08:26:06.016Z,88.56
2022-11-09T08:28:38.285Z,88.65
2022-11-09T08:31:11.576Z,88.85
2022-11-09T08:33:45.307Z,89.02
2022-11-09T08:36:15.616Z,89.29
2022-11-09T08:38:47.740Z,89.45
2022-11-09T08:41:17.460Z,89.61
2022-11-09T08:43:46.899Z,89.65
2022-11-09T08:46:17.819Z,89.76
2022-11-09T08:48:45.850Z,89.83
2022-11-09T08:51:14.158Z,89.99
2022-11-09T08:53:43.331Z,90.04
2022-11-09T08:56:18.346Z,89.95
2022-11-09T08:58:48.336Z,89.98
2022-11-09T09:01:20.970Z,90.05
2022-11-09T09:03:49.067Z,90.11
2022-11-09T09:06:17.146Z,90.16
2022-11-09T09:08:46.943Z,90.09
2022-11-09T09:11:17.070Z,90.05
2022-11-09T09:13:46.222Z,90.08
2022-11-09T09:16:17.718Z,89.87
2022-11-09T09:18:50.459Z,89.73
2022-11-09T09:21:18.713Z,89.63
2022-11-09T09:23:48.380Z,89.24
2022-11-09T09:26:17.024Z,88.30
2022-11-09T09:28:45.476Z,87.57
2022-11-09T09:31:18.738Z,87.03
2022-11-09T09:33:47.654Z,86.80
2022-11-09T09:36:17.835Z,86.98
2022-11-09T09:38:46.929Z,86.92
2022-11-09T09:41:20.486Z,87.04
2022-11-09T09:43:52.549Z,87.08
2022-11-09T09:46:29.574Z,87.12
2022-11-09T09:48:59.952Z,87.30
2022-11-09T09:51:33.865Z,87.37
2022-11-09T09:54:07.571Z,87.37
2022-11-09T09:56:40.339Z,87.40
2022-11-09T09:59:16.119Z,87.41
2022-11-09T10:01:46.538Z,87.41
2022-11-09T10:04:21.660Z,87.17
2022-11-09T10:07:00.536Z,87.30
2022-11-09T10:09:40.661Z,87.24
2022-11-09T10:12:26.981Z,86.49
2022-11-09T10:15:21.654Z,86.16
2022-11-09T10:18:02.350Z,85.84
2022-11-09T10:20:38.594Z,86.25
2022-11-09T10:23:19.139Z,86.33
2022-11-09T10:26:03.530Z,86.36
2022-11-09T10:28:54.656Z,86.25
2022-11-09T10:31:25.638Z,85.35
2022-11-09T10:33:59.819Z,85.59
2022-11-09T10:36:34.423Z,84.84
2022-11-09T10:39:06.705Z,84.25
2022-11-09T10:41:39.320Z,83.86
2022-11-09T10:44:17.154Z,83.04
2022-11-09T10:47:09.129Z,82.35
2022-11-09T10:49:39.697Z,81.99
2022-11-09T10:52:31.733Z,81.75
2022-11-09T10:55:29.962Z,81.78
2022-11-09T10:58:03.111Z,81.71
2022-11-09T11:00:32.847Z,81.37
2022-11-09T11:03:12.664Z,81.37
2022-11-09T11:05:44.202Z,80.78
2022-11-09T11:08:31.202Z,80.39
2022-11-09T11:11:32.010Z,80.66
2022-11-09T11:14:11.580Z,81.67
2022-11-09T11:16:42.669Z,81.63
2022-11-09T11:19:32.030Z,82.14
2022-11-09T11:22:27.695Z,82.17
2022-11-09T11:24:58.770Z,82.16
2022-11-09T11:27:32.878Z,81.36
2022-11-09T11:30:11.085Z,81.13
2022-11-09T11:32:43.109Z,81.05
2022-11-09T11:35:16.988Z,80.20
2022-11-09T11:37:56.072Z,80.14
2022-11-09T11:40:32.324Z,79.41
2022-11-09T11:43:23.109Z,78.68
2022-11-09T11:45:57.977Z,78.61
2022-11-09T11:49:04.525Z,78.33
2022-11-09T11:51:40.935Z,78.38
2022-11-09T11:54:16.068Z,78.29
2022-11-09T11:56:48.483Z,78.25
2022-11-09T11:59:40.419Z,78.47
2022-11-09T12:02:28.678Z,78.16
2022-11-09T12:05:30.011Z,78.45
2022-11-09T12:08:04.891Z,78.78
2022-11-09T12:10:49.389Z,78.33
2022-11-09T12:13:29.302Z,78.06
2022-11-09T12:16:03.124Z,78.16
2022-11-09T12:18:40.216Z,77.89
2022-11-09T12:21:17.144Z,78.53
2022-11-09T12:24:01.329Z,77.64
2022-11-09T12:27:04.657Z,77.58
2022-11-09T12:29:40.999Z,78.14
2022-11-09T12:32:18.481Z,77.55
2022-11-09T12:34:53.801Z,77.80
2022-11-09T12:37:29.314Z,78.07
2022-11-09T12:40:05.474Z,77.76
2022-11-09T12:42:40.109Z,78.01
2022-11-09T12:45:22.224Z,78.09
2022-11-09T12:47:55.151Z,78.51
2022-11-09T12:50:26.764Z,78.33
2022-11-09T12:52:55.322Z,78.28
2022-11-09T12:55:28.361Z,78.45
2022-11-09T12:58:01.216Z,78.84
2022-11-09T13:00:50.782Z,78.68
2022-11-09T13:03:25.314Z,78.77
2022-11-09T13:06:21.087Z,78.60
2022-11-09T13:09:01.657Z,78.67
2022-11-09T13:11:37.224Z,78.55
2022-11-09T13:14:38.591Z,78.35
2022-11-09T13:17:44.301Z,78.07
2022-11-09T13:20:55.941Z,78.09
2022-11-09T13:23:47.710Z,77.87
2022-11-09T13:26:25.733Z,77.95
2022-11-09T13:29:24.941Z,77.96
2022-11-09T13:32:36.476Z,78.05
2022-11-09T13:35:11.921Z,78.30
2022-11-09T13:37:59.319Z,78.55
2022-11-09T13:40:42.196Z,78.62
2022-11-09T13:43:22.855Z,78.84
2022-11-09T13:45:54.703Z,78.96
2022-11-09T13:48:32.770Z,79.15
2022-11-09T13:51:05.948Z,78.84
2022-11-09T13:53:52.984Z,80.09
2022-11-09T13:56:27.570Z,79.88
2022-11-09T13:58:57.238Z,79.60
2022-11-09T14:01:37.925Z,79.33
2022-11-09T14:04:20.168Z,79.29
2022-11-09T14:06:50.208Z,79.49
2022-11-09T14:09:22.983Z,79.83
2022-11-09T14:12:10.791Z,79.94
2022-11-09T14:14:56.117Z,79.51
2022-11-09T14:17:34.058Z,79.81
2022-11-09T14:20:11.985Z,80.41
2022-11-09T14:22:45.028Z,80.15
2022-11-09T14:25:17.876Z,80.60
2022-11-09T14:27:51.487Z,80.57
2022-11-09T14:30:22.234Z,80.29
2022-11-09T14:32:52.626Z,80.54
2022-11-09T14:35:25.326Z,80.94
2022-11-09T14:37:56.182Z,80.56
2022-11-09T14:40:28.107Z,80.90
2022-11-09T14:42:58.735Z,81.40
2022-11-09T14:45:28.807Z,81.83
2022-11-09T14:48:01.761Z,82.19
2022-11-09T14:50:32.527Z,82.55
2022-11-09T14:53:06.771Z,82.88
2022-11-09T14:55:40.216Z,83.21
2022-11-09T14:58:15.562Z,83.50
2022-11-09T15:00:46.146Z,83.63
2022-11-09T15:03:29.211Z,83.99
2022-11-09T15:06:06.642Z,84.21
2022-11-09T15:08:46.566Z,84.41
2022-11-09T15:11:14.892Z,84.60
2022-11-09T15:13:43.249Z,84.87
2022-11-09T15:16:22.985Z,85.13
2022-11-09T15:18:52.439Z,85.28
2022-11-09T15:21:34.551Z,85.41
2022-11-09T15:24:15.893Z,85.53
2022-11-09T15:26:49.778Z,85.63
2022-11-09T15:29:37.419Z,85.77
2022-11-09T15:32:15.450Z,86.06
2022-11-09T15:34:54.474Z,86.24
2022-11-09T15:37:30.001Z,86.24
2022-11-09T15:40:00.042Z,86.14
2022-11-09T15:42:28.824Z,86.24
2022-11-09T15:47:42.486Z,86.36
2022-11-09T15:50:22.065Z,86.38
2022-11-09T15:52:52.933Z,86.46
2022-11-09T15:55:25.196Z,86.60
2022-11-09T15:57:56.639Z,86.75
2022-11-09T16:00:27.441Z,86.71
2022-11-09T16:02:56.644Z,86.77
2022-11-09T16:05:27.888Z,86.94
2022-11-09T16:08:00.450Z,86.95
2022-11-09T16:10:33.299Z,86.93
2022-11-09T16:13:01.768Z,86.89
2022-11-09T16:15:31.571Z,86.86
2022-11-09T16:18:03.782Z,86.92
2022-11-09T16:20:32.276Z,86.97
2022-11-09T16:23:00.726Z,86.98
2022-11-09T16:25:31.644Z,86.97
2022-11-09T16:28:00.657Z,87.11
2022-11-09T16:30:33.412Z,87.82
2022-11-09T16:33:02.488Z,88.05
2022-11-09T16:35:34.205Z,87.97
2022-11-09T16:38:06.199Z,87.33
2022-11-09T16:40:38.500Z,86.43
2022-11-09T16:43:07.551Z,86.40
2022-11-09T16:45:36.803Z,86.42
2022-11-09T16:48:06.987Z,86.54
2022-11-09T16:50:35.611Z,86.75
2022-11-09T16:53:04.420Z,86.74
2022-11-09T16:55:34.038Z,86.89
2022-11-09T16:58:03.462Z,87.14
2022-11-09T17:00:55.791Z,87.24
2022-11-09T17:03:21.590Z,87.36
2022-11-09T17:05:51.331Z,87.41
2022-11-09T17:08:20.229Z,87.44
2022-11-09T17:10:50.360Z,87.54
2022-11-09T17:13:21.224Z,87.56
2022-11-09T17:15:52.087Z,87.77
2022-11-09T17:18:20.531Z,87.72
2022-11-09T17:20:52.300Z,87.75
2022-11-09T17:23:20.770Z,87.84
2022-11-09T17:25:56.411Z,87.89
2022-11-09T17:28:26.825Z,87.91
2022-11-09T17:30:55.567Z,87.97
2022-11-09T17:33:24.803Z,87.96
2022-11-09T17:35:59.472Z,87.95
2022-11-09T17:38:28.719Z,87.91
2022-11-09T17:41:02.697Z,87.84
2022-11-09T17:43:35.383Z,87.58
2022-11-09T17:46:04.952Z,87.58
2022-11-09T17:48:33.424Z,87.68
2022-11-09T17:51:04.434Z,87.80
2022-11-09T17:53:33.652Z,87.98
2022-11-09T17:56:02.715Z,88.13
2022-11-09T17:58:36.654Z,88.43
2022-11-09T18:01:09.389Z,88.76
2022-11-09T18:03:38.450Z,89.13
2022-11-09T18:06:11.247Z,89.43
2022-11-09T18:08:39.292Z,89.69
2022-11-09T18:11:09.696Z,89.81
2022-11-09T18:13:40.555Z,89.90
2022-11-09T18:16:19.055Z,90.05
2022-11-09T18:18:48.395Z,89.96
2022-11-09T18:21:22.381Z,89.79
2022-11-09T18:23:53.886Z,89.71
2022-11-09T18:26:22.206Z,89.31
2022-11-09T18:28:52.333Z,88.62
2022-11-09T18:31:20.534Z,87.96
2022-11-09T18:33:48.924Z,87.29
2022-11-09T18:36:21.879Z,86.93
2022-11-09T18:38:52.043Z,86.57
2022-11-09T18:41:22.766Z,86.32
2022-11-09T18:43:55.135Z,86.33
2022-11-09T18:46:23.303Z,86.25
2022-11-09T18:48:52.301Z,86.26
2022-11-09T18:51:22.942Z,86.35
2022-11-09T18:53:51.592Z,86.65
2022-11-09T18:56:23.560Z,86.90
2022-11-09T18:58:55.921Z,87.52
2022-11-09T19:01:28.998Z,87.61
2022-11-09T19:04:01.513Z,87.87
2022-11-09T19:06:33.795Z,88.05
2022-11-09T19:09:20.297Z,88.35
2022-11-09T19:11:51.227Z,88.34
2022-11-09T19:14:28.649Z,88.58
2022-11-09T19:17:00.444Z,88.73
2022-11-09T19:19:28.554Z,88.80
2022-11-09T19:21:57.474Z,88.73
2022-11-09T19:24:28.566Z,88.65
2022-11-09T19:26:57.151Z,88.78
2022-11-09T19:29:28.861Z,88.86
2022-11-09T19:31:57.814Z,88.94
2022-11-09T19:34:26.069Z,88.84
2022-11-09T19:36:56.915Z,88.87
2022-11-09T19:39:30.964Z,88.94
2022-11-09T19:42:01.734Z,89.06
2022-11-09T19:44:31.242Z,89.07
2022-11-09T19:47:00.835Z,89.08
2022-11-09T19:49:28.903Z,89.12
2022-11-09T19:51:57.538Z,89.22
2022-11-09T19:54:27.108Z,89.30
2022-11-09T19:56:55.291Z,89.37
2022-11-09T19:59:24.343Z,89.36
2022-11-09T20:01:53.719Z,89.47
2022-11-09T20:04:22.006Z,89.56
2022-11-09T20:06:50.225Z,89.78
2022-11-09T20:09:19.242Z,89.79
2022-11-09T20:12:05.643Z,89.85
2022-11-09T20:14:34.025Z,89.85
2022-11-09T20:17:05.678Z,89.93
2022-11-09T20:19:34.593Z,89.93
2022-11-09T20:22:12.963Z,89.94
2022-11-09T20:24:44.427Z,90.05
2022-11-09T20:27:13.096Z,90.12
2022-11-09T20:29:43.046Z,90.21
2022-11-09T20:32:14.850Z,90.29
2022-11-09T20:34:47.048Z,90.37
2022-11-09T20:37:16.326Z,90.43
2022-11-09T20:39:45.435Z,90.51
2022-11-09T20:42:14.101Z,90.53
2022-11-09T20:44:43.742Z,90.52
2022-11-09T20:47:25.765Z,90.53
2022-11-09T20:50:06.865Z,90.48
2022-11-09T20:52:36.219Z,90.47
2022-11-09T20:55:09.849Z,90.44
2022-11-09T20:57:38.135Z,90.35
2022-11-09T21:00:07.785Z,90.22
2022-11-09T21:02:38.299Z,90.10
2022-11-09T21:05:06.731Z,89.99
2022-11-09T21:07:35.873Z,89.81
2022-11-09T21:10:04.206Z,89.71
2022-11-09T21:12:33.256Z,89.63
2022-11-09T21:15:01.268Z,89.62
2022-11-09T21:17:31.044Z,89.48
2022-11-09T21:20:01.690Z,89.37
2022-11-09T21:22:44.785Z,89.16
2022-11-09T21:25:33.362Z,89.00
2022-11-09T21:28:23.153Z,88.94
2022-11-09T21:30:52.550Z,88.92
2022-11-09T21:33:21.420Z,88.75
2022-11-09T21:35:53.032Z,88.63
2022-11-09T21:38:23.007Z,88.48
2022-11-09T21:40:52.295Z,88.32
2022-11-09T21:43:23.638Z,88.14
2022-11-09T21:45:54.241Z,88.09
2022-11-09T21:48:23.240Z,88.00
2022-11-09T21:50:55.048Z,87.82
2022-11-09T21:53:24.443Z,87.77
2022-11-09T21:55:52.496Z,87.69
2022-11-09T21:58:21.521Z,87.55
2022-11-09T22:00:52.052Z,87.44
2022-11-09T22:03:21.515Z,87.18
2022-11-09T22:05:52.422Z,86.82
2022-11-09T22:08:28.610Z,86.61
2022-11-09T22:11:05.355Z,86.53
2022-11-09T22:13:52.970Z,86.42
2022-11-09T22:16:24.024Z,86.30
2022-11-09T22:19:11.444Z,86.19
2022-11-09T22:21:42.343Z,86.06
2022-11-09T22:24:12.747Z,86.09
2022-11-09T22:26:41.145Z,86.00
2022-11-09T22:29:09.672Z,85.83
2022-11-09T22:31:41.383Z,85.76
2022-11-09T22:34:10.413Z,85.55
2022-11-09T22:36:39.281Z,85.41
2022-11-09T22:39:07.862Z,85.39
2022-11-09T22:41:37.820Z,85.27
2022-11-09T22:44:06.208Z,85.14
2022-11-09T22:46:36.660Z,85.01
2022-11-09T22:49:05.531Z,84.95
2022-11-09T22:51:34.866Z,84.85
2022-11-09T22:54:03.165Z,84.78
2022-11-09T22:56:32.398Z,84.64
2022-11-09T22:59:03.955Z,83.94
2022-11-09T23:01:33.171Z,83.64
2022-11-09T23:04:01.319Z,83.47
2022-11-09T23:06:37.167Z,83.24
2022-11-09T23:09:06.959Z,83.17
2022-11-09T23:11:35.502Z,83.30
2022-11-09T23:14:05.140Z,83.33
2022-11-09T23:16:33.451Z,83.39
2022-11-09T23:19:00.568Z,83.46
2022-11-09T23:21:31.322Z,83.57
2022-11-09T23:24:03.918Z,83.75
2022-11-09T23:26:36.505Z,83.85
2022-11-09T23:29:08.445Z,84.04
2022-11-09T23:31:38.457Z,84.17
2022-11-09T23:34:10.319Z,84.17
2022-11-09T23:36:43.070Z,84.14
2022-11-09T23:39:16.427Z,83.89
2022-11-09T23:41:49.750Z,83.86
2022-11-09T23:44:19.874Z,83.66
2022-11-09T23:46:48.324Z,83.54
2022-11-09T23:49:16.556Z,83.34
2022-11-09T23:51:45.722Z,83.20
2022-11-09T23:54:16.786Z,83.30
2022-11-09T23:56:45.099Z,83.36
2022-11-09T23:59:14.038Z,83.56
